sensor_id;sensor_type;location;lat;lon;timestamp;temperature;humidity
74877;HTU21D;64660;44.786;37.680;2022-12-10T00:01:30;10.82;93.71
74877;HTU21D;64660;44.786;37.680;2022-12-10T00:04:00;10.78;93.86
74877;HTU21D;64660;44.786;37.680;2022-12-10T00:06:31;10.86;93.92
74877;HTU21D;64660;44.786;37.680;2022-12-10T00:09:02;10.97;93.76
74877;HTU21D;64660;44.786;37.680;2022-12-10T00:11:32;11.05;93.60
74877;HTU21D;64660;44.786;37.680;2022-12-10T00:14:01;11.16;93.46
74877;HTU21D;64660;44.786;37.680;2022-12-10T00:16:29;11.24;93.27
74877;HTU21D;64660;44.786;37.680;2022-12-10T00:19:03;11.28;93.15
74877;HTU21D;64660;44.786;37.680;2022-12-10T00:21:32;11.29;93.12
74877;HTU21D;64660;44.786;37.680;2022-12-10T00:24:02;11.31;93.10
74877;HTU21D;64660;44.786;37.680;2022-12-10T00:26:33;11.33;92.99
74877;HTU21D;64660;44.786;37.680;2022-12-10T00:29:03;11.34;92.98
74877;HTU21D;64660;44.786;37.680;2022-12-10T00:31:32;11.33;93.06
74877;HTU21D;64660;44.786;37.680;2022-12-10T00:34:02;11.31;93.03
74877;HTU21D;64660;44.786;37.680;2022-12-10T00:36:34;11.31;93.04
74877;HTU21D;64660;44.786;37.680;2022-12-10T00:39:03;11.34;92.98
74877;HTU21D;64660;44.786;37.680;2022-12-10T00:41:31;11.37;92.93
74877;HTU21D;64660;44.786;37.680;2022-12-10T00:43:59;11.38;92.89
74877;HTU21D;64660;44.786;37.680;2022-12-10T00:46:26;11.40;92.89
74877;HTU21D;64660;44.786;37.680;2022-12-10T00:48:55;11.42;92.82
74877;HTU21D;64660;44.786;37.680;2022-12-10T00:51:24;11.41;92.82
74877;HTU21D;64660;44.786;37.680;2022-12-10T00:53:53;11.39;92.85
74877;HTU21D;64660;44.786;37.680;2022-12-10T00:56:22;11.41;92.83
74877;HTU21D;64660;44.786;37.680;2022-12-10T00:58:51;11.42;92.77
74877;HTU21D;64660;44.786;37.680;2022-12-10T01:01:28;11.40;92.72
74877;HTU21D;64660;44.786;37.680;2022-12-10T01:03:56;11.37;92.77
74877;HTU21D;64660;44.786;37.680;2022-12-10T01:06:24;11.32;92.79
74877;HTU21D;64660;44.786;37.680;2022-12-10T01:09:00;11.25;92.89
74877;HTU21D;64660;44.786;37.680;2022-12-10T01:11:30;11.23;93.02
74877;HTU21D;64660;44.786;37.680;2022-12-10T01:14:00;11.25;93.04
74877;HTU21D;64660;44.786;37.680;2022-12-10T01:16:31;11.31;93.00
74877;HTU21D;64660;44.786;37.680;2022-12-10T01:18:58;11.40;92.85
74877;HTU21D;64660;44.786;37.680;2022-12-10T01:21:26;11.42;92.70
74877;HTU21D;64660;44.786;37.680;2022-12-10T01:23:53;11.46;92.69
74877;HTU21D;64660;44.786;37.680;2022-12-10T01:26:21;11.47;92.56
74877;HTU21D;64660;44.786;37.680;2022-12-10T01:28:52;11.48;92.56
74877;HTU21D;64660;44.786;37.680;2022-12-10T01:31:20;11.47;92.56
74877;HTU21D;64660;44.786;37.680;2022-12-10T01:33:49;0.00;92.47
74877;HTU21D;64660;44.786;37.680;2022-12-10T01:36:19;11.49;92.45
74877;HTU21D;64660;44.786;37.680;2022-12-10T01:38:51;11.47;92.35
74877;HTU21D;64660;44.786;37.680;2022-12-10T01:41:23;11.47;92.39
74877;HTU21D;64660;44.786;37.680;2022-12-10T01:44:00;11.46;92.38
74877;HTU21D;64660;44.786;37.680;2022-12-10T01:46:31;11.47;92.30
74877;HTU21D;64660;44.786;37.680;2022-12-10T01:49:20;11.42;92.30
74877;HTU21D;64660;44.786;37.680;2022-12-10T01:51:50;11.34;92.50
74877;HTU21D;64660;44.786;37.680;2022-12-10T01:54:21;11.30;92.49
74877;HTU21D;64660;44.786;37.680;2022-12-10T01:57:02;11.27;92.54
74877;HTU21D;64660;44.786;37.680;2022-12-10T01:59:31;11.23;92.60
74877;HTU21D;64660;44.786;37.680;2022-12-10T02:12:34;11.24;92.56
74877;HTU21D;64660;44.786;37.680;2022-12-10T02:15:19;11.22;92.72
74877;HTU21D;64660;44.786;37.680;2022-12-10T02:17:51;11.20;92.72
74877;HTU21D;64660;44.786;37.680;2022-12-10T02:20:21;11.12;92.80
74877;HTU21D;64660;44.786;37.680;2022-12-10T02:25:20;11.02;93.16
74877;HTU21D;64660;44.786;37.680;2022-12-10T02:28:06;11.03;93.13
74877;HTU21D;64660;44.786;37.680;2022-12-10T02:30:40;11.02;93.10
74877;HTU21D;64660;44.786;37.680;2022-12-10T02:33:10;10.97;93.19
74877;HTU21D;64660;44.786;37.680;2022-12-10T02:35:40;10.90;93.27
74877;HTU21D;64660;44.786;37.680;2022-12-10T02:38:20;10.86;93.49
74877;HTU21D;64660;44.786;37.680;2022-12-10T02:40:53;10.89;93.53
74877;HTU21D;64660;44.786;37.680;2022-12-10T02:43:23;10.95;93.32
74877;HTU21D;64660;44.786;37.680;2022-12-10T02:45:52;11.02;93.25
74877;HTU21D;64660;44.786;37.680;2022-12-10T02:48:26;11.09;93.11
74877;HTU21D;64660;44.786;37.680;2022-12-10T02:50:56;11.14;93.01
74877;HTU21D;64660;44.786;37.680;2022-12-10T02:53:23;11.22;92.93
74877;HTU21D;64660;44.786;37.680;2022-12-10T02:56:02;11.32;92.76
74877;HTU21D;64660;44.786;37.680;2022-12-10T03:01:27;11.54;92.37
74877;HTU21D;64660;44.786;37.680;2022-12-10T03:04:05;11.59;92.30
74877;HTU21D;64660;44.786;37.680;2022-12-10T03:06:41;11.63;92.18
74877;HTU21D;64660;44.786;37.680;2022-12-10T03:09:22;11.64;92.25
74877;HTU21D;64660;44.786;37.680;2022-12-10T03:11:57;11.63;92.28
74877;HTU21D;64660;44.786;37.680;2022-12-10T03:14:27;11.62;92.32
74877;HTU21D;64660;44.786;37.680;2022-12-10T03:17:01;11.61;92.30
74877;HTU21D;64660;44.786;37.680;2022-12-10T03:19:35;11.68;92.33
74877;HTU21D;64660;44.786;37.680;2022-12-10T03:22:04;11.71;92.30
74877;HTU21D;64660;44.786;37.680;2022-12-10T03:24:34;11.75;92.11
74877;HTU21D;64660;44.786;37.680;2022-12-10T03:27:03;11.74;92.26
74877;HTU21D;64660;44.786;37.680;2022-12-10T03:29:35;11.72;92.21
74877;HTU21D;64660;44.786;37.680;2022-12-10T03:32:03;11.68;92.27
74877;HTU21D;64660;44.786;37.680;2022-12-10T03:34:33;11.63;92.37
74877;HTU21D;64660;44.786;37.680;2022-12-10T03:37:01;11.58;92.41
74877;HTU21D;64660;44.786;37.680;2022-12-10T03:39:29;11.54;92.49
74877;HTU21D;64660;44.786;37.680;2022-12-10T03:41:59;11.46;92.66
74877;HTU21D;64660;44.786;37.680;2022-12-10T03:44:27;11.45;92.74
74877;HTU21D;64660;44.786;37.680;2022-12-10T03:46:53;11.41;92.80
74877;HTU21D;64660;44.786;37.680;2022-12-10T03:49:24;11.42;92.95
74877;HTU21D;64660;44.786;37.680;2022-12-10T03:51:53;11.41;92.96
74877;HTU21D;64660;44.786;37.680;2022-12-10T03:54:22;11.40;93.08
74877;HTU21D;64660;44.786;37.680;2022-12-10T03:56:50;11.38;92.98
74877;HTU21D;64660;44.786;37.680;2022-12-10T03:59:19;11.40;92.98
74877;HTU21D;64660;44.786;37.680;2022-12-10T04:01:54;11.42;93.00
74877;HTU21D;64660;44.786;37.680;2022-12-10T04:04:23;11.42;93.09
74877;HTU21D;64660;44.786;37.680;2022-12-10T04:06:51;11.41;92.99
74877;HTU21D;64660;44.786;37.680;2022-12-10T04:09:20;11.36;93.14
74877;HTU21D;64660;44.786;37.680;2022-12-10T04:11:49;11.27;93.24
74877;HTU21D;64660;44.786;37.680;2022-12-10T04:14:16;11.20;93.49
74877;HTU21D;64660;44.786;37.680;2022-12-10T04:17:03;11.20;93.53
74877;HTU21D;64660;44.786;37.680;2022-12-10T04:19:32;11.22;93.47
74877;HTU21D;64660;44.786;37.680;2022-12-10T04:22:00;11.24;93.49
74877;HTU21D;64660;44.786;37.680;2022-12-10T04:24:45;11.16;93.49
74877;HTU21D;64660;44.786;37.680;2022-12-10T04:27:33;11.05;93.67
74877;HTU21D;64660;44.786;37.680;2022-12-10T04:30:04;10.96;93.84
74877;HTU21D;64660;44.786;37.680;2022-12-10T04:32:33;10.95;94.07
74877;HTU21D;64660;44.786;37.680;2022-12-10T04:35:02;10.99;94.16
74877;HTU21D;64660;44.786;37.680;2022-12-10T04:37:33;11.04;94.14
74877;HTU21D;64660;44.786;37.680;2022-12-10T04:40:01;11.09;94.04
74877;HTU21D;64660;44.786;37.680;2022-12-10T04:42:30;11.11;94.01
74877;HTU21D;64660;44.786;37.680;2022-12-10T04:44:59;11.16;93.97
74877;HTU21D;64660;44.786;37.680;2022-12-10T04:47:29;11.22;93.91
74877;HTU21D;64660;44.786;37.680;2022-12-10T04:49:55;11.28;93.78
74877;HTU21D;64660;44.786;37.680;2022-12-10T04:52:22;11.37;93.72
74877;HTU21D;64660;44.786;37.680;2022-12-10T04:54:51;11.41;93.53
74877;HTU21D;64660;44.786;37.680;2022-12-10T04:57:18;11.41;93.49
74877;HTU21D;64660;44.786;37.680;2022-12-10T04:59:44;11.41;93.48
74877;HTU21D;64660;44.786;37.680;2022-12-10T05:02:13;11.43;93.43
74877;HTU21D;64660;44.786;37.680;2022-12-10T05:04:42;11.45;93.38
74877;HTU21D;64660;44.786;37.680;2022-12-10T05:07:10;11.46;93.33
74877;HTU21D;64660;44.786;37.680;2022-12-10T05:09:39;11.40;93.37
74877;HTU21D;64660;44.786;37.680;2022-12-10T05:12:06;11.37;93.49
74877;HTU21D;64660;44.786;37.680;2022-12-10T05:14:33;11.34;93.53
74877;HTU21D;64660;44.786;37.680;2022-12-10T05:17:01;11.40;93.56
74877;HTU21D;64660;44.786;37.680;2022-12-10T05:19:30;11.49;93.43
74877;HTU21D;64660;44.786;37.680;2022-12-10T05:22:01;11.56;93.21
74877;HTU21D;64660;44.786;37.680;2022-12-10T05:24:46;11.53;93.24
74877;HTU21D;64660;44.786;37.680;2022-12-10T05:27:13;11.51;93.37
74877;HTU21D;64660;44.786;37.680;2022-12-10T05:29:40;11.52;93.45
74877;HTU21D;64660;44.786;37.680;2022-12-10T05:32:09;11.57;93.40
74877;HTU21D;64660;44.786;37.680;2022-12-10T05:34:35;11.59;93.39
74877;HTU21D;64660;44.786;37.680;2022-12-10T05:37:04;11.59;93.49
74877;HTU21D;64660;44.786;37.680;2022-12-10T05:39:33;11.60;93.37
74877;HTU21D;64660;44.786;37.680;2022-12-10T05:42:01;11.64;93.56
74877;HTU21D;64660;44.786;37.680;2022-12-10T05:44:28;11.75;93.43
74877;HTU21D;64660;44.786;37.680;2022-12-10T05:46:57;11.78;93.27
74877;HTU21D;64660;44.786;37.680;2022-12-10T05:49:33;11.74;93.33
74877;HTU21D;64660;44.786;37.680;2022-12-10T05:52:00;11.76;93.49
74877;HTU21D;64660;44.786;37.680;2022-12-10T05:54:29;11.83;93.49
74877;HTU21D;64660;44.786;37.680;2022-12-10T05:56:59;11.90;93.30
74877;HTU21D;64660;44.786;37.680;2022-12-10T05:59:25;11.96;93.27
74877;HTU21D;64660;44.786;37.680;2022-12-10T06:01:53;12.05;93.14
74877;HTU21D;64660;44.786;37.680;2022-12-10T06:04:22;12.17;93.00
74877;HTU21D;64660;44.786;37.680;2022-12-10T06:07:00;12.28;92.75
74877;HTU21D;64660;44.786;37.680;2022-12-10T06:09:30;12.42;92.64
74877;HTU21D;64660;44.786;37.680;2022-12-10T06:11:58;12.55;92.33
74877;HTU21D;64660;44.786;37.680;2022-12-10T06:14:24;12.66;92.13
74877;HTU21D;64660;44.786;37.680;2022-12-10T06:16:53;12.78;91.86
74877;HTU21D;64660;44.786;37.680;2022-12-10T06:19:21;12.85;91.76
74877;HTU21D;64660;44.786;37.680;2022-12-10T06:21:48;12.93;91.56
74877;HTU21D;64660;44.786;37.680;2022-12-10T06:24:14;12.97;91.40
74877;HTU21D;64660;44.786;37.680;2022-12-10T06:26:44;13.05;91.32
74877;HTU21D;64660;44.786;37.680;2022-12-10T06:29:11;13.10;91.22
74877;HTU21D;64660;44.786;37.680;2022-12-10T06:31:39;13.17;91.14
74877;HTU21D;64660;44.786;37.680;2022-12-10T06:34:06;13.20;91.09
74877;HTU21D;64660;44.786;37.680;2022-12-10T06:36:42;13.22;91.08
74877;HTU21D;64660;44.786;37.680;2022-12-10T06:39:13;13.23;91.02
74877;HTU21D;64660;44.786;37.680;2022-12-10T06:41:41;13.23;90.98
74877;HTU21D;64660;44.786;37.680;2022-12-10T06:44:12;13.23;91.05
74877;HTU21D;64660;44.786;37.680;2022-12-10T06:46:43;13.27;90.98
74877;HTU21D;64660;44.786;37.680;2022-12-10T06:49:11;13.32;90.89
74877;HTU21D;64660;44.786;37.680;2022-12-10T06:51:39;13.36;90.73
74877;HTU21D;64660;44.786;37.680;2022-12-10T06:54:10;13.39;90.61
74877;HTU21D;64660;44.786;37.680;2022-12-10T06:56:38;13.47;90.49
74877;HTU21D;64660;44.786;37.680;2022-12-10T06:59:07;13.48;90.41
74877;HTU21D;64660;44.786;37.680;2022-12-10T07:01:34;13.52;90.47
74877;HTU21D;64660;44.786;37.680;2022-12-10T07:04:01;13.55;90.35
74877;HTU21D;64660;44.786;37.680;2022-12-10T07:06:30;13.69;90.14
74877;HTU21D;64660;44.786;37.680;2022-12-10T07:08:59;13.86;89.92
74877;HTU21D;64660;44.786;37.680;2022-12-10T07:11:25;14.01;89.52
74877;HTU21D;64660;44.786;37.680;2022-12-10T07:13:53;14.08;89.21
74877;HTU21D;64660;44.786;37.680;2022-12-10T07:16:23;14.09;89.25
74877;HTU21D;64660;44.786;37.680;2022-12-10T07:18:53;14.29;89.25
74877;HTU21D;64660;44.786;37.680;2022-12-10T07:21:32;14.51;88.65
74877;HTU21D;64660;44.786;37.680;2022-12-10T07:24:03;14.62;88.41
74877;HTU21D;64660;44.786;37.680;2022-12-10T07:26:36;14.66;88.41
74877;HTU21D;64660;44.786;37.680;2022-12-10T07:29:14;14.65;88.19
74877;HTU21D;64660;44.786;37.680;2022-12-10T07:31:43;14.66;88.18
74877;HTU21D;64660;44.786;37.680;2022-12-10T07:34:12;14.65;87.83
74877;HTU21D;64660;44.786;37.680;2022-12-10T07:36:43;14.59;87.77
74877;HTU21D;64660;44.786;37.680;2022-12-10T07:39:12;14.53;87.41
74877;HTU21D;64660;44.786;37.680;2022-12-10T07:41:50;14.47;87.41
74877;HTU21D;64660;44.786;37.680;2022-12-10T07:44:31;14.45;87.30
74877;HTU21D;64660;44.786;37.680;2022-12-10T07:46:59;14.43;87.33
74877;HTU21D;64660;44.786;37.680;2022-12-10T07:49:25;14.43;87.39
74877;HTU21D;64660;44.786;37.680;2022-12-10T07:51:54;14.44;87.39
74877;HTU21D;64660;44.786;37.680;2022-12-10T07:54:30;14.43;87.25
74877;HTU21D;64660;44.786;37.680;2022-12-10T07:57:00;14.50;87.25
74877;HTU21D;64660;44.786;37.680;2022-12-10T07:59:28;14.58;86.87
74877;HTU21D;64660;44.786;37.680;2022-12-10T08:01:59;14.54;86.80
74877;HTU21D;64660;44.786;37.680;2022-12-10T08:04:27;14.39;86.97
74877;HTU21D;64660;44.786;37.680;2022-12-10T08:06:54;14.27;87.14
74877;HTU21D;64660;44.786;37.680;2022-12-10T08:09:22;14.30;87.03
74877;HTU21D;64660;44.786;37.680;2022-12-10T08:11:53;14.33;86.13
74877;HTU21D;64660;44.786;37.680;2022-12-10T08:14:24;14.28;86.19
74877;HTU21D;64660;44.786;37.680;2022-12-10T08:16:52;14.33;86.07
74877;HTU21D;64660;44.786;37.680;2022-12-10T08:19:20;14.43;85.93
74877;HTU21D;64660;44.786;37.680;2022-12-10T08:21:50;14.65;85.59
74877;HTU21D;64660;44.786;37.680;2022-12-10T08:24:16;14.84;85.03
74877;HTU21D;64660;44.786;37.680;2022-12-10T08:26:54;14.89;84.55
74877;HTU21D;64660;44.786;37.680;2022-12-10T08:29:21;14.84;84.56
74877;HTU21D;64660;44.786;37.680;2022-12-10T08:31:50;14.87;83.99
74877;HTU21D;64660;44.786;37.680;2022-12-10T08:34:20;14.98;84.03
74877;HTU21D;64660;44.786;37.680;2022-12-10T08:36:49;15.12;83.76
74877;HTU21D;64660;44.786;37.680;2022-12-10T08:39:35;15.28;83.28
74877;HTU21D;64660;44.786;37.680;2022-12-10T08:42:03;15.33;82.82
74877;HTU21D;64660;44.786;37.680;2022-12-10T08:44:31;15.34;82.78
74877;HTU21D;64660;44.786;37.680;2022-12-10T08:46:59;15.27;82.60
74877;HTU21D;64660;44.786;37.680;2022-12-10T08:49:44;15.22;82.36
74877;HTU21D;64660;44.786;37.680;2022-12-10T08:52:12;15.19;82.62
74877;HTU21D;64660;44.786;37.680;2022-12-10T08:54:40;15.33;81.98
74877;HTU21D;64660;44.786;37.680;2022-12-10T08:57:10;15.52;81.75
74877;HTU21D;64660;44.786;37.680;2022-12-10T08:59:40;15.60;81.21
74877;HTU21D;64660;44.786;37.680;2022-12-10T09:02:10;15.76;80.44
74877;HTU21D;64660;44.786;37.680;2022-12-10T09:04:46;16.03;80.14
74877;HTU21D;64660;44.786;37.680;2022-12-10T09:07:23;16.20;79.70
74877;HTU21D;64660;44.786;37.680;2022-12-10T09:09:51;16.21;79.67
74877;HTU21D;64660;44.786;37.680;2022-12-10T09:12:20;16.34;79.23
74877;HTU21D;64660;44.786;37.680;2022-12-10T09:15:05;16.39;79.11
74877;HTU21D;64660;44.786;37.680;2022-12-10T09:17:34;16.32;78.93
74877;HTU21D;64660;44.786;37.680;2022-12-10T09:20:03;16.27;79.33
74877;HTU21D;64660;44.786;37.680;2022-12-10T09:22:43;16.19;79.05
74877;HTU21D;64660;44.786;37.680;2022-12-10T09:25:11;16.24;79.17
74877;HTU21D;64660;44.786;37.680;2022-12-10T09:27:44;16.34;78.78
74877;HTU21D;64660;44.786;37.680;2022-12-10T09:30:11;16.29;78.05
74877;HTU21D;64660;44.786;37.680;2022-12-10T09:32:41;16.19;78.02
74877;HTU21D;64660;44.786;37.680;2022-12-10T09:35:10;16.21;77.63
74877;HTU21D;64660;44.786;37.680;2022-12-10T09:37:40;16.26;77.42
74877;HTU21D;64660;44.786;37.680;2022-12-10T09:40:14;16.11;77.62
74877;HTU21D;64660;44.786;37.680;2022-12-10T09:42:44;16.06;78.01
74877;HTU21D;64660;44.786;37.680;2022-12-10T09:51:17;16.11;77.85
74877;HTU21D;64660;44.786;37.680;2022-12-10T09:53:52;16.01;78.14
74877;HTU21D;64660;44.786;37.680;2022-12-10T09:56:28;16.01;78.11
74877;HTU21D;64660;44.786;37.680;2022-12-10T09:58:59;16.00;77.78
74877;HTU21D;64660;44.786;37.680;2022-12-10T10:01:33;15.88;77.82
74877;HTU21D;64660;44.786;37.680;2022-12-10T10:04:08;15.72;77.91
74877;HTU21D;64660;44.786;37.680;2022-12-10T10:06:35;15.53;78.35
74877;HTU21D;64660;44.786;37.680;2022-12-10T10:09:21;15.25;78.63
74877;HTU21D;64660;44.786;37.680;2022-12-10T10:11:49;15.11;78.80
74877;HTU21D;64660;44.786;37.680;2022-12-10T10:14:25;15.10;78.95
74877;HTU21D;64660;44.786;37.680;2022-12-10T10:17:02;15.03;79.04
74877;HTU21D;64660;44.786;37.680;2022-12-10T10:19:31;14.85;79.56
74877;HTU21D;64660;44.786;37.680;2022-12-10T10:22:04;14.68;80.04
74877;HTU21D;64660;44.786;37.680;2022-12-10T10:24:43;14.52;80.38
74877;HTU21D;64660;44.786;37.680;2022-12-10T10:29:52;14.35;80.88
74877;HTU21D;64660;44.786;37.680;2022-12-10T10:32:24;14.22;81.21
74877;HTU21D;64660;44.786;37.680;2022-12-10T10:34:54;14.15;81.40
74877;HTU21D;64660;44.786;37.680;2022-12-10T10:39:50;14.06;81.90
74877;HTU21D;64660;44.786;37.680;2022-12-10T10:42:23;14.06;82.12
74877;HTU21D;64660;44.786;37.680;2022-12-10T10:45:02;14.11;82.12
74877;HTU21D;64660;44.786;37.680;2022-12-10T10:47:34;14.20;82.09
74877;HTU21D;64660;44.786;37.680;2022-12-10T10:50:02;14.33;81.94
74877;HTU21D;64660;44.786;37.680;2022-12-10T10:52:43;14.45;81.76
74877;HTU21D;64660;44.786;37.680;2022-12-10T10:55:29;14.53;81.81
74877;HTU21D;64660;44.786;37.680;2022-12-10T10:58:14;14.59;81.76
74877;HTU21D;64660;44.786;37.680;2022-12-10T11:01:03;14.59;81.84
74877;HTU21D;64660;44.786;37.680;2022-12-10T11:03:53;14.58;81.96
74877;HTU21D;64660;44.786;37.680;2022-12-10T11:06:44;14.60;81.68
74877;HTU21D;64660;44.786;37.680;2022-12-10T11:09:24;14.58;81.75
74877;HTU21D;64660;44.786;37.680;2022-12-10T11:12:06;14.57;81.38
74877;HTU21D;64660;44.786;37.680;2022-12-10T11:14:48;14.54;81.48
74877;HTU21D;64660;44.786;37.680;2022-12-10T11:17:25;14.49;81.55
74877;HTU21D;64660;44.786;37.680;2022-12-10T11:20:02;14.43;81.41
74877;HTU21D;64660;44.786;37.680;2022-12-10T11:22:48;14.32;81.67
74877;HTU21D;64660;44.786;37.680;2022-12-10T11:25:20;14.21;82.02
74877;HTU21D;64660;44.786;37.680;2022-12-10T11:30:54;14.04;82.34
74877;HTU21D;64660;44.786;37.680;2022-12-10T11:36:25;13.94;82.57
74877;HTU21D;64660;44.786;37.680;2022-12-10T11:39:02;13.95;82.44
74877;HTU21D;64660;44.786;37.680;2022-12-10T11:41:38;13.97;82.30
74877;HTU21D;64660;44.786;37.680;2022-12-10T11:57:39;13.79;82.39
74877;HTU21D;64660;44.786;37.680;2022-12-10T12:00:23;13.78;82.66
74877;HTU21D;64660;44.786;37.680;2022-12-10T12:05:47;13.79;82.93
74877;HTU21D;64660;44.786;37.680;2022-12-10T12:13:57;13.90;83.05
74877;HTU21D;64660;44.786;37.680;2022-12-10T12:16:30;13.84;83.23
74877;HTU21D;64660;44.786;37.680;2022-12-10T12:21:53;13.70;83.61
74877;HTU21D;64660;44.786;37.680;2022-12-10T12:24:34;13.63;83.79
74877;HTU21D;64660;44.786;37.680;2022-12-10T12:30:05;13.55;83.94
74877;HTU21D;64660;44.786;37.680;2022-12-10T12:32:41;13.51;83.99
74877;HTU21D;64660;44.786;37.680;2022-12-10T12:35:28;13.50;83.84
74877;HTU21D;64660;44.786;37.680;2022-12-10T12:38:00;13.46;83.72
74877;HTU21D;64660;44.786;37.680;2022-12-10T12:40:36;13.43;83.68
74877;HTU21D;64660;44.786;37.680;2022-12-10T12:43:04;13.38;83.72
74877;HTU21D;64660;44.786;37.680;2022-12-10T12:45:45;13.32;83.85
74877;HTU21D;64660;44.786;37.680;2022-12-10T12:48:16;13.26;83.82
74877;HTU21D;64660;44.786;37.680;2022-12-10T12:50:51;13.20;83.84
74877;HTU21D;64660;44.786;37.680;2022-12-10T12:53:30;13.12;83.95
74877;HTU21D;64660;44.786;37.680;2022-12-10T12:56:17;13.08;84.11
74877;HTU21D;64660;44.786;37.680;2022-12-10T13:01:45;12.93;84.32
74877;HTU21D;64660;44.786;37.680;2022-12-10T13:04:16;12.89;84.36
74877;HTU21D;64660;44.786;37.680;2022-12-10T13:06:43;12.90;84.35
74877;HTU21D;64660;44.786;37.680;2022-12-10T13:09:31;12.92;84.26
74877;HTU21D;64660;44.786;37.680;2022-12-10T13:14:34;13.00;83.95
74877;HTU21D;64660;44.786;37.680;2022-12-10T13:19:41;13.05;83.93
74877;HTU21D;64660;44.786;37.680;2022-12-10T13:22:10;13.05;83.77
74877;HTU21D;64660;44.786;37.680;2022-12-10T13:29:57;12.91;84.10
74877;HTU21D;64660;44.786;37.680;2022-12-10T13:40:14;12.75;84.41
74877;HTU21D;64660;44.786;37.680;2022-12-10T13:43:19;12.74;84.42
74877;HTU21D;64660;44.786;37.680;2022-12-10T13:46:19;12.69;84.58
74877;HTU21D;64660;44.786;37.680;2022-12-10T13:48:43;12.66;84.61
74877;HTU21D;64660;44.786;37.680;2022-12-10T13:54:15;12.64;84.71
74877;HTU21D;64660;44.786;37.680;2022-12-10T13:56:55;12.62;84.76
74877;HTU21D;64660;44.786;37.680;2022-12-10T14:07:23;12.46;85.22
74877;HTU21D;64660;44.786;37.680;2022-12-10T14:09:52;12.45;85.37
74877;HTU21D;64660;44.786;37.680;2022-12-10T14:12:34;12.43;85.32
74877;HTU21D;64660;44.786;37.680;2022-12-10T14:15:03;12.46;85.29
74877;HTU21D;64660;44.786;37.680;2022-12-10T14:17:41;12.43;85.24
74877;HTU21D;64660;44.786;37.680;2022-12-10T14:20:17;12.40;85.30
74877;HTU21D;64660;44.786;37.680;2022-12-10T14:22:50;12.37;85.38
74877;HTU21D;64660;44.786;37.680;2022-12-10T14:25:21;12.34;85.44
74877;HTU21D;64660;44.786;37.680;2022-12-10T14:27:59;12.34;85.44
74877;HTU21D;64660;44.786;37.680;2022-12-10T14:30:40;12.30;85.42
74877;HTU21D;64660;44.786;37.680;2022-12-10T14:33:12;12.27;85.48
74877;HTU21D;64660;44.786;37.680;2022-12-10T14:35:46;12.25;85.51
74877;HTU21D;64660;44.786;37.680;2022-12-10T14:38:36;12.19;85.54
74877;HTU21D;64660;44.786;37.680;2022-12-10T14:41:05;12.13;85.71
74877;HTU21D;64660;44.786;37.680;2022-12-10T14:43:36;12.06;85.81
74877;HTU21D;64660;44.786;37.680;2022-12-10T14:46:23;11.99;86.00
74877;HTU21D;64660;44.786;37.680;2022-12-10T14:48:52;11.89;86.12
74877;HTU21D;64660;44.786;37.680;2022-12-10T14:51:25;11.85;86.24
74877;HTU21D;64660;44.786;37.680;2022-12-10T14:54:02;11.79;86.34
74877;HTU21D;64660;44.786;37.680;2022-12-10T14:56:33;11.76;86.41
74877;HTU21D;64660;44.786;37.680;2022-12-10T15:02:04;11.79;86.35
74877;HTU21D;64660;44.786;37.680;2022-12-10T15:04:40;11.81;86.34
74877;HTU21D;64660;44.786;37.680;2022-12-10T15:10:13;11.86;86.23
74877;HTU21D;64660;44.786;37.680;2022-12-10T15:12:45;11.83;86.32
74877;HTU21D;64660;44.786;37.680;2022-12-10T15:15:35;11.82;86.25
74877;HTU21D;64660;44.786;37.680;2022-12-10T15:18:10;11.84;86.24
74877;HTU21D;64660;44.786;37.680;2022-12-10T15:23:19;11.87;86.11
74877;HTU21D;64660;44.786;37.680;2022-12-10T15:25:57;11.85;86.12
74877;HTU21D;64660;44.786;37.680;2022-12-10T15:28:31;11.87;86.06
74877;HTU21D;64660;44.786;37.680;2022-12-10T15:31:14;11.90;85.96
74877;HTU21D;64660;44.786;37.680;2022-12-10T15:36:34;11.90;85.87
74877;HTU21D;64660;44.786;37.680;2022-12-10T15:39:30;11.84;86.09
74877;HTU21D;64660;44.786;37.680;2022-12-10T15:42:05;11.87;86.13
74877;HTU21D;64660;44.786;37.680;2022-12-10T15:44:45;11.87;85.95
74877;HTU21D;64660;44.786;37.680;2022-12-10T15:47:23;11.83;86.13
74877;HTU21D;64660;44.786;37.680;2022-12-10T15:50:00;11.79;86.22
74877;HTU21D;64660;44.786;37.680;2022-12-10T15:52:29;11.81;86.22
74877;HTU21D;64660;44.786;37.680;2022-12-10T15:54:58;11.78;86.22
74877;HTU21D;64660;44.786;37.680;2022-12-10T15:57:34;11.79;86.27
74877;HTU21D;64660;44.786;37.680;2022-12-10T16:00:19;11.74;86.39
74877;HTU21D;64660;44.786;37.680;2022-12-10T16:03:21;11.69;86.54
74877;HTU21D;64660;44.786;37.680;2022-12-10T16:05:43;11.70;86.56
74877;HTU21D;64660;44.786;37.680;2022-12-10T16:08:33;11.78;86.46
74877;HTU21D;64660;44.786;37.680;2022-12-10T16:11:14;11.86;86.30
74877;HTU21D;64660;44.786;37.680;2022-12-10T16:13:47;11.92;86.19
74877;HTU21D;64660;44.786;37.680;2022-12-10T16:16:18;11.98;86.12
74877;HTU21D;64660;44.786;37.680;2022-12-10T16:18:44;11.99;86.17
74877;HTU21D;64660;44.786;37.680;2022-12-10T16:21:24;11.96;86.29
74877;HTU21D;64660;44.786;37.680;2022-12-10T16:24:01;12.03;86.30
74877;HTU21D;64660;44.786;37.680;2022-12-10T16:26:30;12.04;86.34
74877;HTU21D;64660;44.786;37.680;2022-12-10T16:28:59;12.04;86.36
74877;HTU21D;64660;44.786;37.680;2022-12-10T16:31:30;12.13;86.29
74877;HTU21D;64660;44.786;37.680;2022-12-10T16:33:59;12.17;86.16
74877;HTU21D;64660;44.786;37.680;2022-12-10T16:36:29;12.25;86.13
74877;HTU21D;64660;44.786;37.680;2022-12-10T16:38:58;12.32;86.04
74877;HTU21D;64660;44.786;37.680;2022-12-10T16:41:24;12.38;85.89
74877;HTU21D;64660;44.786;37.680;2022-12-10T16:44:01;12.42;85.77
74877;HTU21D;64660;44.786;37.680;2022-12-10T16:46:30;12.40;85.84
74877;HTU21D;64660;44.786;37.680;2022-12-10T16:48:59;12.37;85.86
74877;HTU21D;64660;44.786;37.680;2022-12-10T16:51:28;12.38;85.88
74877;HTU21D;64660;44.786;37.680;2022-12-10T16:53:56;12.42;85.77
74877;HTU21D;64660;44.786;37.680;2022-12-10T16:56:33;12.43;85.67
74877;HTU21D;64660;44.786;37.680;2022-12-10T16:59:01;12.43;85.63
74877;HTU21D;64660;44.786;37.680;2022-12-10T17:01:29;12.42;85.61
74877;HTU21D;64660;44.786;37.680;2022-12-10T17:03:59;12.44;85.54
74877;HTU21D;64660;44.786;37.680;2022-12-10T17:06:26;12.42;85.54
74877;HTU21D;64660;44.786;37.680;2022-12-10T17:09:04;12.38;85.62
74877;HTU21D;64660;44.786;37.680;2022-12-10T17:11:51;12.37;85.59
74877;HTU21D;64660;44.786;37.680;2022-12-10T17:14:25;12.32;85.74
74877;HTU21D;64660;44.786;37.680;2022-12-10T17:17:13;12.27;85.90
74877;HTU21D;64660;44.786;37.680;2022-12-10T17:19:41;12.25;85.94